Time;durP1;ratioP1;P1;durP2;ratioP2;P2;SDS_P1;SDS_P2;PMS_P1;PMS_P2;Temp;Humidity;BMP_temperature;BMP_pressure;BME280_temperature;BME280_humidity;BME280_pressure;Samples;Min_cycle;Max_cycle;Signal;HPM_P1;HPM_P2
2021/12/10 00:01:06;;;;;;;178.70;46.80;;;;;;;3.36;74.98;99852.34;5042267;28;20118;-69
2021/12/10 00:03:37;;;;;;;182.02;49.95;;;;;;;3.37;74.78;99847.06;5049610;28;20037;-69
2021/12/10 00:06:15;;;;;;;185.98;47.00;;;;;;;3.35;75.28;99846.31;5039081;28;20073;-69
2021/12/10 00:08:46;;;;;;;202.52;49.08;;;;;;;3.21;75.67;99829.56;5044026;28;20068;-69
2021/12/10 00:11:18;;;;;;;207.27;50.85;;;;;;;2.94;76.76;99828.78;5055167;28;20094;-69
2021/12/10 00:13:47;;;;;;;211.52;52.17;;;;;;;2.59;78.71;99831.75;5066438;28;20072;-69
2021/12/10 00:16:15;;;;;;;219.68;51.72;;;;;;;2.20;80.09;99831.31;5058331;28;20044;-69
2021/12/10 00:18:49;;;;;;;278.10;56.47;;;;;;;2.14;80.89;99822.03;5052115;28;20048;-68
2021/12/10 00:21:16;;;;;;;240.05;53.97;;;;;;;2.08;81.37;99814.44;5034778;28;20131;-68
2021/12/10 00:23:48;;;;;;;589.20;77.95;;;;;;;2.14;80.97;99809.09;5049208;28;20045;-68
2021/12/10 00:26:15;;;;;;;433.70;65.53;;;;;;;2.02;81.79;99806.91;5046968;28;20045;-68
2021/12/10 00:28:41;;;;;;;413.92;67.35;;;;;;;1.96;82.56;99804.47;5035844;28;20076;-69
2021/12/10 00:31:18;;;;;;;513.83;70.13;;;;;;;2.01;81.81;99801.75;5040612;28;20049;-69
2021/12/10 00:33:50;;;;;;;301.17;57.70;;;;;;;2.58;80.13;99786.91;5048557;28;20063;-69
2021/12/10 00:36:16;;;;;;;558.13;77.07;;;;;;;2.47;80.00;99786.44;5049681;28;20155;-69
2021/12/10 00:38:44;;;;;;;489.83;74.15;;;;;;;2.41;80.70;99786.63;5048191;28;20459;-69
2021/12/10 00:41:11;;;;;;;294.98;61.03;;;;;;;2.71;80.04;99783.00;5065726;28;20048;-69
2021/12/10 00:43:39;;;;;;;846.17;92.93;;;;;;;2.35;79.85;99784.25;5060745;28;20110;-68
2021/12/10 00:46:06;;;;;;;666.20;82.97;;;;;;;2.16;81.13;99788.34;5046035;28;20102;-68
2021/12/10 00:48:34;;;;;;;259.05;52.35;;;;;;;2.47;80.62;99775.25;5048193;28;20103;-68
2021/12/10 00:51:01;;;;;;;718.13;99.45;;;;;;;1.98;81.59;99781.19;5032538;28;20064;-69
2021/12/10 00:53:27;;;;;;;732.15;93.80;;;;;;;1.80;82.09;99769.69;5050648;28;20090;-69
2021/12/10 00:55:55;;;;;;;547.70;78.47;;;;;;;1.93;82.16;99766.66;5050299;28;20102;-69
2021/12/10 00:58:23;;;;;;;659.88;79.35;;;;;;;2.19;81.24;99768.41;5045281;28;20095;-69
2021/12/10 01:00:52;;;;;;;738.15;83.35;;;;;;;2.32;80.25;99774.03;5047352;28;21661;-69
2021/12/10 01:03:23;;;;;;;464.83;70.45;;;;;;;2.19;80.84;99783.06;5036851;28;20106;-69
2021/12/10 01:05:55;;;;;;;499.25;70.40;;;;;;;1.23;84.19;99787.78;5050044;28;20574;-69
2021/12/10 01:08:22;;;;;;;686.08;94.40;;;;;;;1.07;85.68;99774.47;5050065;28;20077;-67
2021/12/10 01:10:51;;;;;;;496.35;74.45;;;;;;;1.38;85.06;99767.53;5050213;28;20447;-69
2021/12/10 01:13:26;;;;;;;863.65;101.63;;;;;;;1.20;84.97;99762.91;5050261;28;20053;-68
2021/12/10 01:16:14;;;;;;;854.08;100.07;;;;;;;1.52;84.33;99767.09;5050321;28;20045;-68
2021/12/10 01:24:32;;;;;;;953.88;99.22;;;;;;;1.79;81.34;99760.25;5049070;28;20079;-68
2021/12/10 01:27:09;;;;;;;448.48;69.78;;;;;;;1.76;81.84;99753.44;5039680;28;20067;-68
2021/12/10 01:29:39;;;;;;;576.97;74.47;;;;;;;1.52;83.02;99753.31;5032573;28;20041;-68
2021/12/10 01:32:08;;;;;;;522.42;60.22;;;;;;;1.03;84.44;99749.66;5049922;28;20562;-68
2021/12/10 01:34:35;;;;;;;406.52;64.20;;;;;;;1.40;83.67;99752.00;5049783;28;20041;-68
2021/12/10 01:37:02;;;;;;;538.15;69.90;;;;;;;1.18;84.08;99749.19;5047561;28;20041;-68
2021/12/10 01:39:34;;;;;;;296.73;53.25;;;;;;;1.43;83.21;99755.31;5050165;28;20052;-68
2021/12/10 01:42:03;;;;;;;260.17;47.25;;;;;;;1.33;83.30;99753.06;5049565;28;20041;-69
2021/12/10 01:44:36;;;;;;;350.05;51.80;;;;;;;1.14;83.69;99749.34;5049589;28;20128;-68
2021/12/10 01:47:07;;;;;;;327.75;55.05;;;;;;;1.44;82.31;99756.19;5049120;28;20079;-68
2021/12/10 01:49:34;;;;;;;450.35;60.83;;;;;;;1.51;82.54;99749.06;5049115;28;20090;-68
2021/12/10 01:52:00;;;;;;;603.60;71.63;;;;;;;1.60;82.16;99747.03;5049982;28;20069;-68
2021/12/10 01:54:31;;;;;;;210.45;48.53;;;;;;;2.04;81.31;99744.78;5036993;28;20087;-68
2021/12/10 01:56:59;;;;;;;617.20;72.32;;;;;;;1.95;80.59;99743.34;5041416;28;20084;-68
2021/12/10 01:59:29;;;;;;;337.75;61.38;;;;;;;1.73;81.01;99742.34;5040992;28;20154;-68
2021/12/10 02:01:59;;;;;;;386.63;58.25;;;;;;;2.04;80.20;99730.09;5049065;28;20102;-68
2021/12/10 02:04:30;;;;;;;361.75;52.67;;;;;;;1.93;80.91;99721.88;5049639;28;20072;-68
2021/12/10 02:06:58;;;;;;;369.80;52.78;;;;;;;1.53;80.27;99727.47;5037176;28;20381;-68
2021/12/10 02:09:25;;;;;;;419.23;52.80;;;;;;;1.86;79.91;99722.97;5049020;28;20068;-68
2021/12/10 02:11:52;;;;;;;322.60;45.55;;;;;;;1.55;79.58;99717.94;5049364;28;20497;-68
2021/12/10 02:14:19;;;;;;;268.77;48.80;;;;;;;1.72;79.40;99707.91;5052685;28;20508;-68
2021/12/10 02:16:47;;;;;;;258.08;44.75;;;;;;;1.66;79.92;99708.13;5048428;28;20094;-68
2021/12/10 02:19:15;;;;;;;212.30;37.83;;;;;;;1.90;79.52;99699.56;5048409;28;20382;-68
2021/12/10 02:21:43;;;;;;;394.85;55.28;;;;;;;1.99;78.60;99697.56;5067232;28;20079;-68
2021/12/10 02:24:11;;;;;;;209.18;47.17;;;;;;;1.96;79.17;99704.50;5068611;28;20057;-68
2021/12/10 02:26:41;;;;;;;470.58;53.55;;;;;;;1.70;79.14;99704.50;5052687;28;20484;-67
2021/12/10 02:29:08;;;;;;;446.10;55.60;;;;;;;1.77;79.14;99693.09;5048148;28;20065;-67
2021/12/10 02:31:35;;;;;;;315.70;47.35;;;;;;;1.76;78.85;99690.56;5063144;28;20064;-67
2021/12/10 02:34:02;;;;;;;307.70;47.45;;;;;;;1.44;79.74;99683.84;5062833;28;20413;-67
2021/12/10 02:36:30;;;;;;;185.88;36.92;;;;;;;1.52;80.03;99687.00;5044657;28;20052;-67
2021/12/10 02:38:58;;;;;;;552.38;61.72;;;;;;;1.74;78.65;99677.69;5039131;28;20064;-67
2021/12/10 02:41:27;;;;;;;437.00;61.20;;;;;;;1.79;78.74;99672.38;5029540;28;20489;-68
2021/12/10 02:43:54;;;;;;;516.08;55.58;;;;;;;1.67;78.97;99670.16;5040086;28;20118;-68
2021/12/10 02:46:21;;;;;;;438.73;56.88;;;;;;;1.50;79.39;99677.63;5048809;28;20337;-68
2021/12/10 02:48:48;;;;;;;412.88;47.65;;;;;;;1.36;80.50;99673.75;5047955;28;20037;-68
2021/12/10 02:51:16;;;;;;;439.15;54.33;;;;;;;1.43;80.00;99671.81;5048681;28;20069;-68
2021/12/10 02:53:45;;;;;;;273.48;41.70;;;;;;;1.68;80.24;99667.56;5048612;28;20064;-68
2021/12/10 02:56:17;;;;;;;274.15;42.13;;;;;;;1.64;79.53;99665.97;5049716;28;20064;-68
2021/12/10 02:58:46;;;;;;;150.98;36.38;;;;;;;1.21;80.80;99675.97;5054560;28;20041;-68
2021/12/10 03:01:18;;;;;;;348.48;48.15;;;;;;;1.50;79.84;99675.03;5048280;28;20049;-68
2021/12/10 03:03:44;;;;;;;179.38;39.33;;;;;;;1.61;79.02;99670.38;5048618;28;20045;-68
2021/12/10 03:06:12;;;;;;;200.40;40.05;;;;;;;1.63;79.30;99664.25;5048659;28;20049;-68
2021/12/10 03:08:42;;;;;;;238.10;41.92;;;;;;;1.50;80.07;99670.72;5049027;28;20469;-67
2021/12/10 03:11:10;;;;;;;430.00;52.67;;;;;;;1.07;79.71;99665.22;5048566;28;20069;-67
2021/12/10 03:13:39;;;;;;;538.00;60.20;;;;;;;1.41;79.77;99658.09;5048082;28;20057;-68
2021/12/10 03:16:07;;;;;;;281.88;44.53;;;;;;;1.36;79.80;99660.00;5052160;28;20045;-68
2021/12/10 03:18:34;;;;;;;194.20;39.85;;;;;;;1.60;79.63;99653.19;5051562;28;20493;-68
2021/12/10 03:21:02;;;;;;;300.63;42.00;;;;;;;1.76;79.00;99647.47;5052858;28;20559;-68
2021/12/10 03:23:29;;;;;;;235.18;38.05;;;;;;;1.70;78.95;99645.06;5052337;28;20056;-67
2021/12/10 03:25:55;;;;;;;377.30;45.92;;;;;;;1.60;79.23;99643.69;5053858;28;20119;-67
2021/12/10 03:28:22;;;;;;;435.65;58.67;;;;;;;1.80;78.63;99649.06;5053370;28;20076;-67
2021/12/10 03:30:55;;;;;;;221.27;41.80;;;;;;;1.83;78.77;99640.34;5051677;28;20068;-67
2021/12/10 03:33:21;;;;;;;299.63;46.35;;;;;;;1.86;78.74;99643.69;5045008;28;20510;-67
2021/12/10 03:35:50;;;;;;;216.32;40.25;;;;;;;1.94;78.82;99633.09;5032282;28;20069;-67
2021/12/10 03:38:20;;;;;;;351.17;51.25;;;;;;;1.93;78.65;99629.66;5043168;28;20472;-67
2021/12/10 03:40:47;;;;;;;204.63;40.10;;;;;;;1.99;78.75;99623.44;5051867;28;20041;-67
2021/12/10 03:43:15;;;;;;;332.10;47.92;;;;;;;1.89;77.97;99625.47;5051495;28;20303;-67
2021/12/10 03:45:46;;;;;;;177.00;37.88;;;;;;;1.91;78.93;99618.53;5053638;28;20045;-67
2021/12/10 03:48:17;;;;;;;589.22;60.20;;;;;;;1.99;78.94;99620.84;5045839;28;20512;-67
2021/12/10 03:50:46;;;;;;;338.75;48.13;;;;;;;2.05;78.35;99617.19;5040139;28;20095;-67
2021/12/10 03:53:13;;;;;;;309.90;47.67;;;;;;;1.94;78.35;99615.84;5051463;28;20053;-67
2021/12/10 03:55:40;;;;;;;191.40;39.28;;;;;;;2.13;78.57;99617.78;5050583;28;20041;-67
2021/12/10 03:58:06;;;;;;;241.88;42.95;;;;;;;2.16;78.28;99612.50;5040465;28;20033;-68
2021/12/10 04:00:37;;;;;;;137.25;38.45;;;;;;;2.30;78.52;99618.84;5040357;28;20493;-68
2021/12/10 04:03:04;;;;;;;129.82;37.65;;;;;;;2.44;78.26;99610.59;5050554;28;20107;-68
2021/12/10 04:05:33;;;;;;;141.50;37.33;;;;;;;2.50;77.86;99609.53;5062387;28;20040;-68
2021/12/10 04:07:59;;;;;;;161.80;39.20;;;;;;;2.53;77.63;99607.69;5051696;28;20396;-68
2021/12/10 04:10:27;;;;;;;315.95;48.08;;;;;;;2.48;77.05;99599.22;5051339;28;20037;-68
2021/12/10 04:12:54;;;;;;;138.07;37.38;;;;;;;2.64;77.19;99591.75;5051433;28;20497;-68
2021/12/10 04:15:23;;;;;;;119.78;33.08;;;;;;;2.71;76.97;99581.09;5051363;28;20493;-68
2021/12/10 04:17:50;;;;;;;129.18;35.95;;;;;;;2.56;76.86;99580.84;5050537;28;20049;-68
2021/12/10 04:20:20;;;;;;;138.20;35.83;;;;;;;2.58;76.97;99579.91;5050945;28;20041;-68
2021/12/10 04:22:48;;;;;;;127.93;35.60;;;;;;;2.67;76.81;99576.09;5051192;28;20056;-68
2021/12/10 04:25:20;;;;;;;128.05;34.42;;;;;;;2.62;76.71;99578.03;5051097;28;20044;-68
2021/12/10 04:27:47;;;;;;;;;;;;;;;2.64;76.47;99569.31;5038993;28;20076;-68
2021/12/10 04:30:14;;;;;;;97.40;29.42;;;;;;;2.75;75.80;99571.47;5042826;28;20254;-67
2021/12/10 04:32:41;;;;;;;101.53;31.23;;;;;;;2.78;75.32;99566.19;5051122;28;20049;-68
2021/12/10 04:35:09;;;;;;;118.75;31.73;;;;;;;2.58;76.19;99559.19;5044585;28;20166;-68
2021/12/10 04:37:36;;;;;;;97.07;32.50;;;;;;;2.64;75.93;99556.38;5051443;28;20045;-66
2021/12/10 04:40:06;;;;;;;92.68;32.35;;;;;;;2.71;76.06;99551.78;5051265;28;20121;-67
2021/12/10 04:42:33;;;;;;;87.93;29.75;;;;;;;2.79;75.00;99555.78;5050655;28;20044;-68
2021/12/10 04:45:01;;;;;;;87.60;30.35;;;;;;;2.76;75.01;99553.31;5051305;28;20103;-68
2021/12/10 04:47:29;;;;;;;92.78;28.83;;;;;;;2.71;75.69;99555.22;5050219;28;20045;-68
2021/12/10 04:49:56;;;;;;;83.22;27.80;;;;;;;2.71;75.33;99547.47;5038167;28;20118;-68
2021/12/10 04:52:23;;;;;;;93.03;30.20;;;;;;;2.52;75.83;99546.47;5050456;28;20511;-68
2021/12/10 04:54:50;;;;;;;83.75;28.17;;;;;;;2.57;76.15;99549.75;5036555;28;20103;-67
2021/12/10 04:57:18;;;;;;;97.07;29.23;;;;;;;2.63;75.26;99541.72;5039406;28;20071;-67
2021/12/10 04:59:45;;;;;;;94.88;31.63;;;;;;;2.60;75.89;99547.03;5042205;28;20077;-67
2021/12/10 05:02:14;;;;;;;95.70;30.23;;;;;;;2.46;75.97;99549.31;5054165;28;20056;-68
2021/12/10 05:04:43;;;;;;;86.60;29.35;;;;;;;2.75;75.78;99538.69;5042280;28;20045;-68
2021/12/10 05:07:11;;;;;;;90.07;30.35;;;;;;;2.91;74.87;99542.38;5050316;28;20041;-68
2021/12/10 05:09:37;;;;;;;92.43;28.10;;;;;;;2.75;75.25;99548.19;5050108;28;20409;-67
2021/12/10 05:12:05;;;;;;;89.00;27.35;;;;;;;2.84;75.17;99551.28;5050193;28;20084;-67
2021/12/10 05:14:34;;;;;;;92.03;29.80;;;;;;;3.01;74.22;99537.66;5050402;28;20069;-67
2021/12/10 05:17:05;;;;;;;76.82;28.17;;;;;;;3.05;74.34;99538.38;5050035;28;20068;-67
2021/12/10 05:19:32;;;;;;;74.45;26.08;;;;;;;2.89;75.08;99536.38;5034514;28;20045;-67
2021/12/10 05:22:01;;;;;;;91.93;27.45;;;;;;;2.99;74.78;99536.88;5037969;28;20539;-67
2021/12/10 05:24:29;;;;;;;84.82;28.58;;;;;;;2.88;74.85;99541.66;5049864;28;20049;-67
2021/12/10 05:26:59;;;;;;;69.05;26.45;;;;;;;3.01;74.55;99542.81;5046414;28;20135;-67
2021/12/10 05:29:25;;;;;;;78.13;29.33;;;;;;;2.63;75.93;99544.31;5033829;28;20103;-67
2021/12/10 05:31:55;;;;;;;86.22;27.95;;;;;;;2.61;76.18;99546.13;5040759;28;20441;-67
2021/12/10 05:34:22;;;;;;;77.60;26.52;;;;;;;2.86;75.53;99538.25;5049814;28;20068;-67
2021/12/10 05:36:48;;;;;;;80.50;27.90;;;;;;;2.96;75.03;99539.56;5048367;28;20135;-68
2021/12/10 05:39:17;;;;;;;81.35;29.33;;;;;;;2.95;75.20;99543.09;5049204;28;20095;-68
2021/12/10 05:41:44;;;;;;;82.55;29.13;;;;;;;2.70;76.01;99544.91;5049157;28;20124;-68
2021/12/10 05:44:10;;;;;;;91.43;28.88;;;;;;;2.89;75.94;99538.97;5046822;28;20052;-68
2021/12/10 05:46:38;;;;;;;95.63;29.45;;;;;;;2.93;75.84;99535.38;5048656;28;20045;-67
2021/12/10 05:49:07;;;;;;;84.55;29.17;;;;;;;3.02;75.43;99520.38;5033588;28;20132;-67
2021/12/10 05:51:34;;;;;;;94.05;29.92;;;;;;;2.88;75.78;99520.94;5042509;28;20111;-68
2021/12/10 05:54:00;;;;;;;99.13;31.98;;;;;;;2.86;76.25;99528.75;5049385;28;20481;-67
2021/12/10 05:56:26;;;;;;;84.15;28.92;;;;;;;3.07;75.60;99521.03;5042333;28;20048;-67
2021/12/10 05:58:53;;;;;;;105.15;32.28;;;;;;;2.95;75.54;99524.97;5030399;28;20123;-68
2021/12/10 06:01:22;;;;;;;89.18;30.15;;;;;;;3.09;75.76;99521.81;5048860;28;20126;-67
2021/12/10 06:03:52;;;;;;;101.13;31.00;;;;;;;3.14;75.14;99522.47;5049287;28;20065;-68
2021/12/10 06:06:22;;;;;;;103.18;31.85;;;;;;;2.63;76.66;99521.03;5050621;28;20064;-68
2021/12/10 06:08:49;;;;;;;88.82;29.10;;;;;;;2.94;76.18;99515.50;5047421;28;20044;-67
2021/12/10 06:11:16;;;;;;;101.03;31.70;;;;;;;2.99;76.09;99517.91;5041402;28;20138;-67
2021/12/10 06:13:43;;;;;;;102.53;30.45;;;;;;;3.17;75.54;99506.81;5040965;28;20045;-67
2021/12/10 06:16:09;;;;;;;112.13;31.05;;;;;;;2.83;76.69;99510.75;5041239;28;20065;-67
2021/12/10 06:18:35;;;;;;;91.75;30.73;;;;;;;2.59;77.91;99510.88;5050476;28;20437;-67
2021/12/10 06:21:02;;;;;;;96.82;31.38;;;;;;;2.77;77.30;99504.97;5047849;28;20044;-67
2021/12/10 06:23:30;;;;;;;100.38;31.27;;;;;;;2.87;77.01;99503.72;5050417;28;20095;-67
2021/12/10 06:25:56;;;;;;;104.53;29.83;;;;;;;2.08;79.22;99501.59;5048597;28;20092;-67
2021/12/10 06:28:23;;;;;;;101.60;30.83;;;;;;;2.37;78.90;99497.91;5038808;28;20083;-65
2021/12/10 06:30:52;;;;;;;101.85;30.55;;;;;;;2.39;78.80;99498.69;5031537;28;20127;-65
2021/12/10 06:33:21;;;;;;;107.75;33.25;;;;;;;2.36;79.09;99494.50;5049152;28;20148;-65
2021/12/10 06:35:50;;;;;;;99.57;30.48;;;;;;;2.32;79.84;99494.66;5048496;28;20504;-65
2021/12/10 06:38:18;;;;;;;99.60;30.65;;;;;;;2.60;78.53;99486.66;5049618;28;20463;-65
2021/12/10 06:40:46;;;;;;;98.75;30.35;;;;;;;2.71;78.00;99484.50;5048623;28;20090;-65
2021/12/10 06:43:15;;;;;;;104.47;30.45;;;;;;;2.77;77.77;99482.50;5046461;28;20045;-65
2021/12/10 06:45:43;;;;;;;96.20;29.27;;;;;;;2.69;78.01;99479.41;5048564;28;20049;-65
2021/12/10 06:48:10;;;;;;;87.63;30.75;;;;;;;3.00;77.29;99463.44;5043447;28;20587;-65
2021/12/10 06:50:40;;;;;;;91.88;32.17;;;;;;;2.83;77.32;99469.34;5039923;28;20142;-65
2021/12/10 06:53:07;;;;;;;97.93;30.13;;;;;;;2.42;79.16;99470.97;5052902;28;20056;-65
2021/12/10 06:55:34;;;;;;;99.88;30.83;;;;;;;2.09;80.60;99472.25;5053118;28;20108;-65
2021/12/10 06:58:02;;;;;;;96.95;30.67;;;;;;;2.29;80.07;99471.50;5053123;28;20045;-65
2021/12/10 07:00:33;;;;;;;101.82;30.30;;;;;;;2.29;79.96;99469.72;5040446;28;20049;-65
2021/12/10 07:03:00;;;;;;;108.38;33.05;;;;;;;2.44;79.66;99468.31;5052405;28;20041;-66
2021/12/10 07:05:26;;;;;;;92.28;29.65;;;;;;;2.23;80.21;99459.63;5052196;28;20049;-65
2021/12/10 07:07:53;;;;;;;108.15;30.73;;;;;;;2.06;81.14;99461.19;5052015;28;20551;-65
2021/12/10 07:10:19;;;;;;;97.82;26.80;;;;;;;2.24;80.60;99455.31;5052604;28;20747;-65
2021/12/10 07:12:47;;;;;;;95.78;29.50;;;;;;;1.94;81.52;99452.13;5052476;28;20229;-65
2021/12/10 07:15:17;;;;;;;93.32;29.35;;;;;;;2.11;81.64;99454.06;5052567;28;20090;-65
2021/12/10 07:17:47;;;;;;;115.28;31.80;;;;;;;2.09;81.62;99456.72;5050361;28;20045;-65
2021/12/10 07:20:15;;;;;;;73.40;22.07;;;;;;;2.28;80.83;99457.72;5037804;28;20041;-66
2021/12/10 07:22:42;;;;;;;85.57;29.30;;;;;;;2.19;80.94;99454.63;5052272;28;20493;-66
2021/12/10 07:25:09;;;;;;;99.35;29.73;;;;;;;2.41;80.16;99452.91;5052357;28;20452;-66
2021/12/10 07:27:36;;;;;;;116.93;31.63;;;;;;;2.33;80.23;99450.63;5043494;28;20486;-66
2021/12/10 07:30:05;;;;;;;107.22;30.13;;;;;;;2.25;80.51;99444.06;5036269;28;20110;-66
2021/12/10 07:32:34;;;;;;;113.68;32.47;;;;;;;2.37;80.50;99431.50;5052405;28;20057;-66
2021/12/10 07:35:00;;;;;;;88.68;29.58;;;;;;;2.28;80.82;99442.22;5044248;28;20045;-65
2021/12/10 07:37:26;;;;;;;89.22;30.45;;;;;;;2.57;79.97;99435.88;5051775;28;20041;-65
2021/12/10 07:39:53;;;;;;;103.43;31.00;;;;;;;2.60;79.89;99429.75;5050841;28;20049;-65
2021/12/10 07:42:19;;;;;;;113.47;32.45;;;;;;;2.08;81.04;99430.94;5051317;28;20049;-65
2021/12/10 07:44:46;;;;;;;95.20;30.88;;;;;;;2.34;80.63;99423.84;5051020;28;20489;-65
2021/12/10 07:47:14;;;;;;;109.80;29.77;;;;;;;2.55;80.10;99414.38;5051112;28;20067;-65
2021/12/10 07:49:44;;;;;;;106.78;29.70;;;;;;;2.33;80.87;99421.31;5045478;28;20319;-66
2021/12/10 07:52:18;;;;;;;117.18;32.47;;;;;;;2.65;79.38;99407.13;5051926;28;20045;-66
2021/12/10 07:54:47;;;;;;;103.00;31.35;;;;;;;2.83;79.12;99417.56;5051478;28;20053;-66
2021/12/10 07:57:14;;;;;;;109.50;31.98;;;;;;;3.03;77.89;99411.53;5055360;28;20120;-66
2021/12/10 07:59:40;;;;;;;92.70;28.98;;;;;;;2.56;78.95;99397.97;5051318;28;20044;-66
2021/12/10 08:02:07;;;;;;;105.63;31.77;;;;;;;2.54;79.75;99415.31;5050999;28;20068;-66
2021/12/10 08:04:33;;;;;;;104.47;33.90;;;;;;;2.46;79.84;99412.19;5051731;28;20051;-66
2021/12/10 08:07:01;;;;;;;94.95;30.85;;;;;;;2.76;79.23;99413.53;5065888;28;20093;-66
2021/12/10 08:09:27;;;;;;;96.07;32.10;;;;;;;2.88;78.60;99415.59;5057472;28;20098;-66
2021/12/10 08:11:54;;;;;;;101.13;32.13;;;;;;;3.06;78.27;99410.59;5067852;28;20504;-65
2021/12/10 08:14:20;;;;;;;98.45;30.75;;;;;;;2.98;78.07;99413.50;5068169;28;20049;-65
2021/12/10 08:16:46;;;;;;;107.78;30.08;;;;;;;2.83;78.07;99414.97;5051085;28;20496;-65
2021/12/10 08:19:13;;;;;;;89.75;29.80;;;;;;;2.90;78.65;99411.22;5037521;28;20092;-65
2021/12/10 08:21:40;;;;;;;92.47;31.75;;;;;;;3.25;76.92;99409.72;5047977;28;20041;-65
2021/12/10 08:24:08;;;;;;;106.13;30.80;;;;;;;3.22;76.84;99402.06;5050670;28;20456;-65
2021/12/10 08:26:36;;;;;;;96.32;31.50;;;;;;;3.20;77.08;99413.41;5043711;28;21787;-65
2021/12/10 08:29:03;;;;;;;103.40;32.42;;;;;;;2.95;78.61;99408.44;5046752;28;20045;-65
2021/12/10 08:31:30;;;;;;;111.07;34.15;;;;;;;2.97;78.28;99405.78;5050978;28;20497;-65
2021/12/10 08:33:57;;;;;;;121.72;33.60;;;;;;;3.02;78.01;99406.44;5050329;28;20055;-66
2021/12/10 08:36:24;;;;;;;108.03;31.38;;;;;;;3.21;78.03;99404.75;5065648;28;20417;-66
2021/12/10 08:38:50;;;;;;;99.40;31.00;;;;;;;3.34;77.09;99392.94;5070596;28;20097;-66
2021/12/10 08:41:22;;;;;;;94.72;30.83;;;;;;;3.43;76.68;99390.81;5039100;28;20459;-66
2021/12/10 08:43:49;;;;;;;104.88;30.90;;;;;;;3.24;77.46;99381.31;5043141;28;20203;-66
2021/12/10 08:46:16;;;;;;;106.93;32.55;;;;;;;3.34;76.88;99375.66;5048326;28;20382;-66
2021/12/10 08:48:44;;;;;;;89.60;29.60;;;;;;;3.64;76.14;99378.63;5046097;28;20502;-66
2021/12/10 08:51:14;;;;;;;91.53;29.38;;;;;;;3.82;75.31;99364.84;5050051;28;20049;-66
2021/12/10 08:53:41;;;;;;;77.88;27.27;;;;;;;3.78;75.53;99371.06;5050122;28;20106;-66
2021/12/10 08:56:09;;;;;;;85.72;30.00;;;;;;;3.75;75.50;99375.53;5037663;28;20095;-66
2021/12/10 08:58:37;;;;;;;86.20;30.05;;;;;;;3.99;75.21;99369.22;5041651;28;20072;-66
2021/12/10 09:01:06;;;;;;;81.53;27.13;;;;;;;3.50;76.00;99370.63;5050378;28;20489;-66
2021/12/10 09:03:33;;;;;;;103.55;31.00;;;;;;;3.73;76.52;99362.63;5050232;28;20057;-66
2021/12/10 09:06:00;;;;;;;95.80;29.05;;;;;;;3.58;76.49;99368.56;5047399;28;20059;-66
2021/12/10 09:08:27;;;;;;;86.07;29.48;;;;;;;3.42;77.19;99370.97;5049645;28;20045;-66
2021/12/10 09:10:53;;;;;;;97.65;30.33;;;;;;;3.59;77.14;99365.03;5047287;28;20087;-66
2021/12/10 09:13:20;;;;;;;84.78;27.02;;;;;;;3.70;77.11;99369.72;5045479;28;20130;-66
2021/12/10 09:15:55;;;;;;;90.07;28.48;;;;;;;3.80;76.13;99366.66;5047211;28;20045;-66
2021/12/10 09:18:21;;;;;;;78.68;27.88;;;;;;;3.96;75.50;99364.19;5048437;28;20069;-66
2021/12/10 09:20:50;;;;;;;77.53;29.08;;;;;;;3.75;75.85;99358.25;5048222;28;20459;-66
2021/12/10 09:23:22;;;;;;;75.35;27.75;;;;;;;3.79;75.86;99356.34;5067470;28;20447;-66
2021/12/10 09:25:49;;;;;;;85.95;28.30;;;;;;;4.07;75.30;99361.09;5035808;28;20517;-66
2021/12/10 09:28:17;;;;;;;78.93;28.15;;;;;;;3.86;76.23;99350.81;5037981;28;20092;-66
2021/12/10 09:30:47;;;;;;;88.57;29.45;;;;;;;3.62;76.89;99351.91;5048268;28;20064;-66
2021/12/10 09:33:15;;;;;;;87.63;28.00;;;;;;;3.37;77.53;99344.41;5048725;28;20072;-66
2021/12/10 09:35:42;;;;;;;87.53;28.40;;;;;;;3.35;78.06;99329.84;5047675;28;20056;-66
2021/12/10 09:38:08;;;;;;;81.80;29.70;;;;;;;2.99;79.76;99347.03;5048460;28;20052;-66
2021/12/10 09:40:39;;;;;;;77.70;26.00;;;;;;;3.29;78.83;99341.31;5048436;28;20036;-66
2021/12/10 09:43:08;;;;;;;85.25;30.20;;;;;;;3.01;79.62;99342.59;5061014;28;20066;-66
2021/12/10 09:45:36;;;;;;;85.03;28.45;;;;;;;2.77;80.66;99342.72;5043684;28;20068;-67
2021/12/10 09:48:05;;;;;;;85.20;30.42;;;;;;;2.53;81.80;99338.59;5037080;28;20064;-66
2021/12/10 09:50:39;;;;;;;90.38;31.48;;;;;;;2.67;81.59;99331.09;5049230;28;20040;-66
2021/12/10 09:53:06;;;;;;;85.15;31.35;;;;;;;2.29;82.51;99317.13;5037481;28;20072;-66
2021/12/10 09:55:34;;;;;;;82.28;26.17;;;;;;;2.63;81.57;99323.50;5036316;28;20044;-66
2021/12/10 09:58:04;;;;;;;87.15;29.23;;;;;;;2.79;81.42;99325.41;5044601;28;20064;-66
2021/12/10 10:00:35;;;;;;;92.05;32.03;;;;;;;3.13;80.01;99323.94;5048982;28;20045;-66
2021/12/10 10:03:02;;;;;;;89.20;31.00;;;;;;;3.04;80.12;99308.81;5049400;28;20489;-67
2021/12/10 10:05:31;;;;;;;86.70;30.85;;;;;;;3.10;79.48;99314.56;5048810;28;20547;-67
2021/12/10 10:08:04;;;;;;;75.65;29.45;;;;;;;3.13;79.62;99308.41;5050043;28;20077;-67
2021/12/10 10:10:32;;;;;;;72.72;28.10;;;;;;;3.15;79.59;99316.94;5048765;28;20118;-66
2021/12/10 10:13:00;;;;;;;82.70;30.10;;;;;;;3.23;79.88;99305.34;5049103;28;20076;-66
2021/12/10 10:15:31;;;;;;;78.72;28.73;;;;;;;3.15;80.04;99301.41;5049087;28;20122;-66
2021/12/10 10:18:00;;;;;;;;;;;;;;;3.60;78.17;99304.50;5048803;28;20071;-66
2021/12/10 10:20:29;;;;;;;89.03;27.92;;;;;;;3.44;78.89;99300.94;5048781;28;20383;-66
2021/12/10 10:22:56;;;;;;;72.63;26.52;;;;;;;3.87;77.44;99290.28;5067662;28;20060;-66
2021/12/10 10:25:28;;;;;;;72.22;26.77;;;;;;;3.91;77.49;99296.16;5058378;28;20079;-66
2021/12/10 10:27:55;;;;;;;87.60;28.80;;;;;;;3.88;77.71;99294.53;5048248;28;20559;-66
2021/12/10 10:30:29;;;;;;;81.22;28.77;;;;;;;4.19;77.41;99287.88;5035212;28;20138;-66
2021/12/10 10:32:59;;;;;;;73.40;26.10;;;;;;;3.85;77.22;99283.47;5049118;28;20048;-67
2021/12/10 10:35:29;;;;;;;72.80;26.55;;;;;;;4.10;76.70;99283.16;5058301;28;20044;-67
2021/12/10 10:37:57;;;;;;;52.63;21.67;;;;;;;3.93;77.12;99287.38;5059444;28;20494;-67
2021/12/10 10:40:30;;;;;;;80.75;27.67;;;;;;;4.17;77.07;99284.53;5039455;28;20548;-67
2021/12/10 10:42:58;;;;;;;68.32;26.20;;;;;;;4.22;76.54;99279.94;5029079;28;20111;-67
2021/12/10 10:45:28;;;;;;;76.68;25.63;;;;;;;4.33;75.85;99285.44;5047235;28;20531;-68
2021/12/10 10:47:57;;;;;;;69.43;25.27;;;;;;;3.71;78.24;99284.13;5057534;28;20134;-67
2021/12/10 10:50:27;;;;;;;70.68;26.48;;;;;;;3.68;78.45;99281.69;5053369;28;20075;-67
2021/12/10 10:52:56;;;;;;;71.85;27.88;;;;;;;3.66;78.59;99278.28;5037689;28;20111;-68
2021/12/10 10:55:27;;;;;;;65.75;25.15;;;;;;;4.10;76.96;99277.97;5047038;28;20076;-68
2021/12/10 10:57:56;;;;;;;73.47;27.27;;;;;;;3.74;78.26;99271.00;5050106;28;20044;-68
2021/12/10 11:00:32;;;;;;;63.88;25.02;;;;;;;3.89;77.79;99275.47;5040365;28;20098;-68
2021/12/10 11:03:03;;;;;;;66.35;26.15;;;;;;;4.07;77.73;99280.69;5035261;28;20390;-68
2021/12/10 11:05:31;;;;;;;62.58;26.83;;;;;;;4.31;76.68;99288.13;5048628;28;20045;-68
2021/12/10 11:08:01;;;;;;;63.75;25.38;;;;;;;4.29;76.19;99281.31;5048022;28;20125;-67
2021/12/10 11:10:36;;;;;;;66.13;24.98;;;;;;;4.31;76.00;99282.09;5048568;28;20111;-67
2021/12/10 11:13:15;;;;;;;66.70;25.25;;;;;;;4.27;76.68;99285.75;5048405;28;20490;-67
2021/12/10 11:16:03;;;;;;;69.85;25.45;;;;;;;4.23;76.57;99279.03;5048545;28;20405;-67
2021/12/10 11:18:42;;;;;;;66.35;26.13;;;;;;;4.59;75.85;99282.38;5048288;28;20044;-67
2021/12/10 11:21:09;;;;;;;65.20;26.15;;;;;;;4.51;75.79;99274.13;5048428;28;20493;-68
2021/12/10 11:23:38;;;;;;;62.25;25.63;;;;;;;4.43;75.97;99272.88;5049060;28;20505;-68
2021/12/10 11:26:08;;;;;;;67.85;26.67;;;;;;;4.30;76.58;99280.41;5035477;28;20441;-68
2021/12/10 11:28:37;;;;;;;62.30;25.88;;;;;;;4.32;76.68;99271.63;5041065;28;20092;-68
2021/12/10 11:31:08;;;;;;;62.78;25.25;;;;;;;4.42;76.79;99269.41;5036552;28;20045;-68
2021/12/10 11:33:37;;;;;;;61.08;25.00;;;;;;;4.66;76.09;99273.38;5029122;28;20413;-68